sensor_id;sensor_type;location;lat;lon;timestamp;pressure;altitude;pressure_sealevel;temperature;humidity
54994;BME280;40891;47.242;8.648;2023-01-29T00:01:12;97152.63;;;0.64;90.40
54994;BME280;40891;47.242;8.648;2023-01-29T00:03:38;97154.19;;;0.61;90.32
54994;BME280;40891;47.242;8.648;2023-01-29T00:06:05;97161.91;;;0.56;90.17
54994;BME280;40891;47.242;8.648;2023-01-29T00:08:35;97155.25;;;0.57;90.31
54994;BME280;40891;47.242;8.648;2023-01-29T00:11:02;97152.59;;;0.60;90.42
54994;BME280;40891;47.242;8.648;2023-01-29T00:13:27;97159.59;;;0.58;90.97
54994;BME280;40891;47.242;8.648;2023-01-29T00:15:54;97166.22;;;0.57;90.95
54994;BME280;40891;47.242;8.648;2023-01-29T00:18:20;97161.53;;;0.57;90.49
54994;BME280;40891;47.242;8.648;2023-01-29T00:20:45;97158.06;;;0.60;90.22
54994;BME280;40891;47.242;8.648;2023-01-29T00:23:10;97164.44;;;0.68;90.31
54994;BME280;40891;47.242;8.648;2023-01-29T00:25:36;97162.84;;;0.67;89.76
54994;BME280;40891;47.242;8.648;2023-01-29T00:28:01;97166.00;;;0.69;90.16
54994;BME280;40891;47.242;8.648;2023-01-29T00:30:26;97157.44;;;0.71;90.18
54994;BME280;40891;47.242;8.648;2023-01-29T00:32:52;97151.69;;;0.79;89.56
54994;BME280;40891;47.242;8.648;2023-01-29T00:35:18;97164.16;;;0.77;89.91
54994;BME280;40891;47.242;8.648;2023-01-29T00:37:43;97165.69;;;0.74;90.05
54994;BME280;40891;47.242;8.648;2023-01-29T00:40:09;97163.91;;;0.85;89.18
54994;BME280;40891;47.242;8.648;2023-01-29T00:42:34;97163.84;;;0.82;89.87
54994;BME280;40891;47.242;8.648;2023-01-29T00:45:18;97165.03;;;0.84;89.77
54994;BME280;40891;47.242;8.648;2023-01-29T00:47:43;97168.09;;;0.79;89.90
54994;BME280;40891;47.242;8.648;2023-01-29T00:50:10;97166.91;;;0.77;89.85
54994;BME280;40891;47.242;8.648;2023-01-29T00:52:36;97168.47;;;0.78;89.68
54994;BME280;40891;47.242;8.648;2023-01-29T00:55:03;97172.00;;;0.78;90.07
54994;BME280;40891;47.242;8.648;2023-01-29T00:57:32;97171.63;;;0.80;89.53
54994;BME280;40891;47.242;8.648;2023-01-29T00:59:57;97170.94;;;0.86;89.59
54994;BME280;40891;47.242;8.648;2023-01-29T01:02:23;97170.94;;;0.86;89.11
54994;BME280;40891;47.242;8.648;2023-01-29T01:05:08;97174.78;;;0.82;89.40
54994;BME280;40891;47.242;8.648;2023-01-29T01:07:53;97166.19;;;0.83;88.92
54994;BME280;40891;47.242;8.648;2023-01-29T01:10:28;97166.97;;;0.80;88.62
54994;BME280;40891;47.242;8.648;2023-01-29T01:13:01;97168.53;;;0.81;88.77
54994;BME280;40891;47.242;8.648;2023-01-29T01:15:30;97169.28;;;0.78;88.72
54994;BME280;40891;47.242;8.648;2023-01-29T01:17:58;97165.56;;;0.93;88.33
54994;BME280;40891;47.242;8.648;2023-01-29T01:20:27;97178.72;;;0.84;89.22
54994;BME280;40891;47.242;8.648;2023-01-29T01:22:53;97178.66;;;0.81;89.08
54994;BME280;40891;47.242;8.648;2023-01-29T01:25:19;97188.53;;;0.85;88.01
54994;BME280;40891;47.242;8.648;2023-01-29T01:27:45;97193.91;;;0.78;88.77
54994;BME280;40891;47.242;8.648;2023-01-29T01:30:13;97200.94;;;0.79;89.59
54994;BME280;40891;47.242;8.648;2023-01-29T01:32:39;97199.72;;;0.77;89.52
54994;BME280;40891;47.242;8.648;2023-01-29T01:35:05;97207.94;;;0.77;90.37
54994;BME280;40891;47.242;8.648;2023-01-29T01:37:31;97213.47;;;0.80;89.96
54994;BME280;40891;47.242;8.648;2023-01-29T01:39:57;97221.28;;;0.78;89.92
54994;BME280;40891;47.242;8.648;2023-01-29T01:42:31;97224.03;;;0.82;89.68
54994;BME280;40891;47.242;8.648;2023-01-29T01:45:02;97217.78;;;0.81;89.94
54994;BME280;40891;47.242;8.648;2023-01-29T01:47:47;97218.56;;;0.82;88.38
54994;BME280;40891;47.242;8.648;2023-01-29T01:50:15;97223.31;;;0.85;88.93
54994;BME280;40891;47.242;8.648;2023-01-29T01:52:46;97224.84;;;0.82;89.61
54994;BME280;40891;47.242;8.648;2023-01-29T01:55:16;97218.94;;;0.80;90.18
54994;BME280;40891;47.242;8.648;2023-01-29T01:57:44;97225.25;;;0.84;89.06
54994;BME280;40891;47.242;8.648;2023-01-29T02:00:14;97219.06;;;0.87;88.70
54994;BME280;40891;47.242;8.648;2023-01-29T02:02:43;97221.31;;;0.82;89.61
54994;BME280;40891;47.242;8.648;2023-01-29T02:05:29;97225.66;;;0.86;88.97
54994;BME280;40891;47.242;8.648;2023-01-29T02:08:18;97222.53;;;0.84;88.63
54994;BME280;40891;47.242;8.648;2023-01-29T02:11:06;97226.06;;;0.85;89.50
54994;BME280;40891;47.242;8.648;2023-01-29T02:13:32;97231.09;;;0.83;89.06
54994;BME280;40891;47.242;8.648;2023-01-29T02:15:58;97227.63;;;0.86;89.02
54994;BME280;40891;47.242;8.648;2023-01-29T02:18:23;97226.06;;;0.85;89.37
54994;BME280;40891;47.242;8.648;2023-01-29T02:23:55;97236.69;;;0.90;89.78
54994;BME280;40891;47.242;8.648;2023-01-29T02:26:39;97234.81;;;0.97;88.00
54994;BME280;40891;47.242;8.648;2023-01-29T02:29:12;97232.47;;;0.96;87.95
54994;BME280;40891;47.242;8.648;2023-01-29T02:34:31;97234.69;;;0.87;87.91
54994;BME280;40891;47.242;8.648;2023-01-29T02:37:24;97237.03;;;0.88;88.30
54994;BME280;40891;47.242;8.648;2023-01-29T02:39:56;97237.34;;;0.83;89.39
54994;BME280;40891;47.242;8.648;2023-01-29T02:42:40;97236.59;;;0.83;88.69
54994;BME280;40891;47.242;8.648;2023-01-29T02:45:15;97229.91;;;0.80;88.67
54994;BME280;40891;47.242;8.648;2023-01-29T02:47:59;97228.72;;;0.81;89.30
54994;BME280;40891;47.242;8.648;2023-01-29T02:50:37;97225.19;;;0.81;89.57
54994;BME280;40891;47.242;8.648;2023-01-29T02:53:20;97235.00;;;0.82;88.86
54994;BME280;40891;47.242;8.648;2023-01-29T02:55:53;97233.88;;;0.86;88.96
54994;BME280;40891;47.242;8.648;2023-01-29T02:58:46;97230.78;;;0.88;88.48
54994;BME280;40891;47.242;8.648;2023-01-29T03:01:21;97212.72;;;0.83;88.30
54994;BME280;40891;47.242;8.648;2023-01-29T03:03:52;97208.47;;;0.86;87.63
54994;BME280;40891;47.242;8.648;2023-01-29T03:06:23;97220.16;;;0.83;88.07
54994;BME280;40891;47.242;8.648;2023-01-29T03:08:56;97210.78;;;0.84;88.58
54994;BME280;40891;47.242;8.648;2023-01-29T03:11:23;97209.72;;;0.92;88.77
54994;BME280;40891;47.242;8.648;2023-01-29T03:13:56;97206.91;;;0.85;87.41
54994;BME280;40891;47.242;8.648;2023-01-29T03:16:34;97204.16;;;0.85;86.63
54994;BME280;40891;47.242;8.648;2023-01-29T03:19:11;97215.47;;;0.83;86.25
54994;BME280;40891;47.242;8.648;2023-01-29T03:21:45;97211.94;;;0.83;86.11
54994;BME280;40891;47.242;8.648;2023-01-29T03:24:18;97209.97;;;0.83;86.28
54994;BME280;40891;47.242;8.648;2023-01-29T03:27:07;97205.31;;;0.84;87.05
54994;BME280;40891;47.242;8.648;2023-01-29T03:29:53;97202.94;;;0.82;87.15
54994;BME280;40891;47.242;8.648;2023-01-29T03:32:38;97197.81;;;0.81;86.75
54994;BME280;40891;47.242;8.648;2023-01-29T03:35:06;97211.09;;;0.79;86.85
54994;BME280;40891;47.242;8.648;2023-01-29T03:37:44;97218.25;;;0.87;87.22
54994;BME280;40891;47.242;8.648;2023-01-29T03:40:10;97206.03;;;0.81;87.76
54994;BME280;40891;47.242;8.648;2023-01-29T03:45:21;97215.09;;;0.85;86.83
54994;BME280;40891;47.242;8.648;2023-01-29T03:55:59;97202.47;;;0.77;86.61
54994;BME280;40891;47.242;8.648;2023-01-29T03:58:45;97198.94;;;0.76;87.10
54994;BME280;40891;47.242;8.648;2023-01-29T04:01:16;97202.53;;;0.80;88.53
54994;BME280;40891;47.242;8.648;2023-01-29T04:03:58;97197.88;;;0.84;88.63
54994;BME280;40891;47.242;8.648;2023-01-29T04:06:30;97206.09;;;0.84;88.75
54994;BME280;40891;47.242;8.648;2023-01-29T04:09:08;97203.38;;;0.84;88.34
54994;BME280;40891;47.242;8.648;2023-01-29T04:11:37;97197.88;;;0.84;88.98
54994;BME280;40891;47.242;8.648;2023-01-29T04:14:06;97197.06;;;0.80;88.72
54994;BME280;40891;47.242;8.648;2023-01-29T04:16:38;97196.66;;;0.78;88.39
54994;BME280;40891;47.242;8.648;2023-01-29T04:19:05;97198.19;;;0.79;87.40
54994;BME280;40891;47.242;8.648;2023-01-29T04:21:30;97195.47;;;0.79;87.77
54994;BME280;40891;47.242;8.648;2023-01-29T04:23:57;97197.47;;;0.82;86.45
54994;BME280;40891;47.242;8.648;2023-01-29T04:26:58;97189.63;;;0.81;86.50
54994;BME280;40891;47.242;8.648;2023-01-29T04:35:00;97181.06;;;0.82;86.35
54994;BME280;40891;47.242;8.648;2023-01-29T04:40:22;97180.22;;;0.78;85.71
54994;BME280;40891;47.242;8.648;2023-01-29T04:43:08;97177.03;;;0.76;86.26
54994;BME280;40891;47.242;8.648;2023-01-29T04:48:31;97172.25;;;0.69;87.86
54994;BME280;40891;47.242;8.648;2023-01-29T04:51:34;97181.59;;;0.65;88.15
54994;BME280;40891;47.242;8.648;2023-01-29T04:54:15;97178.44;;;0.63;88.12
54994;BME280;40891;47.242;8.648;2023-01-29T04:59:15;97182.00;;;0.67;88.48
54994;BME280;40891;47.242;8.648;2023-01-29T05:01:43;97181.66;;;0.68;88.24
54994;BME280;40891;47.242;8.648;2023-01-29T05:04:12;97191.00;;;0.67;88.67
54994;BME280;40891;47.242;8.648;2023-01-29T05:06:39;97197.28;;;0.68;87.98
54994;BME280;40891;47.242;8.648;2023-01-29T05:09:05;97196.41;;;0.64;87.81
54994;BME280;40891;47.242;8.648;2023-01-29T05:11:31;97198.78;;;0.65;88.48
54994;BME280;40891;47.242;8.648;2023-01-29T05:14:00;97196.06;;;0.65;87.80
54994;BME280;40891;47.242;8.648;2023-01-29T05:16:30;97201.97;;;0.71;86.96
54994;BME280;40891;47.242;8.648;2023-01-29T05:19:07;97199.69;;;0.73;85.83
54994;BME280;40891;47.242;8.648;2023-01-29T05:21:33;97199.84;;;0.84;86.43
54994;BME280;40891;47.242;8.648;2023-01-29T05:24:15;97204.41;;;0.76;85.70
54994;BME280;40891;47.242;8.648;2023-01-29T05:26:42;97210.97;;;0.72;85.93
54994;BME280;40891;47.242;8.648;2023-01-29T05:29:27;97207.84;;;0.69;85.97
54994;BME280;40891;47.242;8.648;2023-01-29T05:31:52;97214.47;;;0.68;85.89
54994;BME280;40891;47.242;8.648;2023-01-29T05:34:17;97213.72;;;0.72;86.16
54994;BME280;40891;47.242;8.648;2023-01-29T05:36:43;97220.72;;;0.69;85.26
54994;BME280;40891;47.242;8.648;2023-01-29T05:39:08;97229.72;;;0.69;85.91
54994;BME280;40891;47.242;8.648;2023-01-29T05:41:33;97232.53;;;0.73;85.01
54994;BME280;40891;47.242;8.648;2023-01-29T05:43:59;97234.19;;;0.81;85.16
54994;BME280;40891;47.242;8.648;2023-01-29T05:46:24;97231.78;;;0.76;84.34
54994;BME280;40891;47.242;8.648;2023-01-29T05:48:51;97229.03;;;0.76;84.54
54994;BME280;40891;47.242;8.648;2023-01-29T05:51:17;97231.78;;;0.76;83.65
54994;BME280;40891;47.242;8.648;2023-01-29T05:53:42;97243.47;;;0.73;84.64
54994;BME280;40891;47.242;8.648;2023-01-29T05:56:07;97243.09;;;0.75;84.59
54994;BME280;40891;47.242;8.648;2023-01-29T05:58:33;97248.94;;;0.73;84.83
54994;BME280;40891;47.242;8.648;2023-01-29T06:01:16;97254.75;;;0.72;85.75
54994;BME280;40891;47.242;8.648;2023-01-29T06:03:42;97256.34;;;0.73;84.81
54994;BME280;40891;47.242;8.648;2023-01-29T06:06:08;97253.25;;;0.74;83.40
54994;BME280;40891;47.242;8.648;2023-01-29T06:08:33;97256.69;;;0.71;82.94
54994;BME280;40891;47.242;8.648;2023-01-29T06:10:59;97264.50;;;0.69;83.39
54994;BME280;40891;47.242;8.648;2023-01-29T06:13:24;97288.34;;;0.68;82.91
54994;BME280;40891;47.242;8.648;2023-01-29T06:15:50;97288.66;;;0.63;82.69
54994;BME280;40891;47.242;8.648;2023-01-29T06:18:15;97291.38;;;0.63;82.67
54994;BME280;40891;47.242;8.648;2023-01-29T06:20:40;97282.75;;;0.61;81.90
54994;BME280;40891;47.242;8.648;2023-01-29T06:23:05;97291.44;;;0.67;81.64
54994;BME280;40891;47.242;8.648;2023-01-29T06:25:31;97296.50;;;0.65;81.45
54994;BME280;40891;47.242;8.648;2023-01-29T06:27:56;97290.19;;;0.61;82.46
54994;BME280;40891;47.242;8.648;2023-01-29T06:30:21;97299.59;;;0.63;82.21
54994;BME280;40891;47.242;8.648;2023-01-29T06:32:47;97298.84;;;0.66;81.80
54994;BME280;40891;47.242;8.648;2023-01-29T06:35:12;97301.13;;;0.61;80.77
54994;BME280;40891;47.242;8.648;2023-01-29T06:37:37;97303.97;;;0.68;80.70
54994;BME280;40891;47.242;8.648;2023-01-29T06:40:03;97301.84;;;0.58;80.82
54994;BME280;40891;47.242;8.648;2023-01-29T06:42:28;97308.22;;;0.43;83.08
54994;BME280;40891;47.242;8.648;2023-01-29T06:44:54;97310.66;;;0.48;82.23
54994;BME280;40891;47.242;8.648;2023-01-29T06:47:20;97308.28;;;0.46;82.50
54994;BME280;40891;47.242;8.648;2023-01-29T06:49:45;97310.22;;;0.46;82.84
54994;BME280;40891;47.242;8.648;2023-01-29T06:52:10;97317.50;;;0.38;83.87
54994;BME280;40891;47.242;8.648;2023-01-29T06:54:35;97309.97;;;0.32;84.31
54994;BME280;40891;47.242;8.648;2023-01-29T06:57:01;97315.44;;;0.32;84.88
54994;BME280;40891;47.242;8.648;2023-01-29T06:59:26;97315.38;;;0.28;85.64
54994;BME280;40891;47.242;8.648;2023-01-29T07:01:51;97315.38;;;0.28;85.99
54994;BME280;40891;47.242;8.648;2023-01-29T07:04:17;97307.75;;;0.37;86.50
54994;BME280;40891;47.242;8.648;2023-01-29T07:06:42;97314.91;;;0.45;86.51
54994;BME280;40891;47.242;8.648;2023-01-29T07:09:11;97311.81;;;0.47;85.91
54994;BME280;40891;47.242;8.648;2023-01-29T07:11:37;97318.56;;;0.53;86.09
54994;BME280;40891;47.242;8.648;2023-01-29T07:14:02;97313.38;;;0.48;86.80
54994;BME280;40891;47.242;8.648;2023-01-29T07:16:28;97312.59;;;0.47;87.47
54994;BME280;40891;47.242;8.648;2023-01-29T07:18:53;97307.50;;;0.46;88.06
54994;BME280;40891;47.242;8.648;2023-01-29T07:21:18;97295.03;;;0.48;86.98
54994;BME280;40891;47.242;8.648;2023-01-29T07:23:44;97296.25;;;0.51;87.22
54994;BME280;40891;47.242;8.648;2023-01-29T07:26:10;97294.78;;;0.57;86.00
54994;BME280;40891;47.242;8.648;2023-01-29T07:28:37;97293.22;;;0.56;86.89
54994;BME280;40891;47.242;8.648;2023-01-29T07:31:03;97296.25;;;0.51;86.83
54994;BME280;40891;47.242;8.648;2023-01-29T07:33:29;97288.00;;;0.74;86.13
54994;BME280;40891;47.242;8.648;2023-01-29T07:35:54;97280.19;;;0.72;86.03
54994;BME280;40891;47.242;8.648;2023-01-29T07:38:19;97284.28;;;0.59;86.98
54994;BME280;40891;47.242;8.648;2023-01-29T07:40:45;97277.63;;;0.60;86.02
54994;BME280;40891;47.242;8.648;2023-01-29T07:43:10;97275.75;;;0.64;84.80
54994;BME280;40891;47.242;8.648;2023-01-29T07:45:40;97270.06;;;0.76;82.65
54994;BME280;40891;47.242;8.648;2023-01-29T07:48:10;97280.19;;;0.72;83.79
54994;BME280;40891;47.242;8.648;2023-01-29T07:50:37;97273.19;;;0.75;81.57
54994;BME280;40891;47.242;8.648;2023-01-29T07:53:03;97276.53;;;0.87;81.62
54994;BME280;40891;47.242;8.648;2023-01-29T07:55:29;97284.84;;;0.94;81.63
54994;BME280;40891;47.242;8.648;2023-01-29T07:57:56;97278.28;;;0.99;81.71
54994;BME280;40891;47.242;8.648;2023-01-29T08:00:22;97283.06;;;1.05;82.33
54994;BME280;40891;47.242;8.648;2023-01-29T08:02:47;97277.78;;;1.19;81.38
54994;BME280;40891;47.242;8.648;2023-01-29T08:05:12;97278.72;;;1.30;80.26
54994;BME280;40891;47.242;8.648;2023-01-29T08:07:37;97280.50;;;1.46;80.63
54994;BME280;40891;47.242;8.648;2023-01-29T08:10:03;97278.03;;;1.67;79.03
54994;BME280;40891;47.242;8.648;2023-01-29T08:12:29;97275.16;;;1.89;78.94
54994;BME280;40891;47.242;8.648;2023-01-29T08:14:54;97271.19;;;2.20;77.47
54994;BME280;40891;47.242;8.648;2023-01-29T08:17:19;97271.09;;;2.50;74.47
54994;BME280;40891;47.242;8.648;2023-01-29T08:19:45;97267.84;;;2.81;73.07
54994;BME280;40891;47.242;8.648;2023-01-29T08:22:10;97265.13;;;2.85;73.17
54994;BME280;40891;47.242;8.648;2023-01-29T08:24:35;97267.84;;;2.81;72.74
54994;BME280;40891;47.242;8.648;2023-01-29T08:27:00;97258.19;;;3.01;72.04
54994;BME280;40891;47.242;8.648;2023-01-29T08:29:26;97255.03;;;2.99;72.69
54994;BME280;40891;47.242;8.648;2023-01-29T08:31:51;97252.81;;;3.19;71.72
54994;BME280;40891;47.242;8.648;2023-01-29T08:34:16;97260.66;;;3.20;71.09
54994;BME280;40891;47.242;8.648;2023-01-29T08:36:42;97264.50;;;3.09;70.97
54994;BME280;40891;47.242;8.648;2023-01-29T08:39:07;97261.56;;;3.42;70.06
54994;BME280;40891;47.242;8.648;2023-01-29T08:41:32;97266.84;;;3.75;68.09
54994;BME280;40891;47.242;8.648;2023-01-29T08:43:58;97266.13;;;3.92;66.95
54994;BME280;40891;47.242;8.648;2023-01-29T08:46:25;97261.06;;;4.05;66.45
54994;BME280;40891;47.242;8.648;2023-01-29T08:48:50;97263.06;;;4.19;65.14
54994;BME280;40891;47.242;8.648;2023-01-29T08:51:16;97259.13;;;4.12;65.61
54994;BME280;40891;47.242;8.648;2023-01-29T08:53:41;97263.09;;;4.26;64.90
54994;BME280;40891;47.242;8.648;2023-01-29T08:56:07;97259.59;;;4.46;62.81
54994;BME280;40891;47.242;8.648;2023-01-29T08:58:32;97258.41;;;5.25;61.04
54994;BME280;40891;47.242;8.648;2023-01-29T09:01:05;97243.59;;;7.56;53.54
54994;BME280;40891;47.242;8.648;2023-01-29T09:03:30;97231.28;;;10.10;44.28
54994;BME280;40891;47.242;8.648;2023-01-29T09:05:56;97229.84;;;11.54;39.61
54994;BME280;40891;47.242;8.648;2023-01-29T09:08:21;97219.59;;;12.75;36.46
54994;BME280;40891;47.242;8.648;2023-01-29T09:10:46;97218.72;;;13.50;36.54
54994;BME280;40891;47.242;8.648;2023-01-29T09:13:12;97218.19;;;13.77;35.92
54994;BME280;40891;47.242;8.648;2023-01-29T09:15:37;97225.81;;;13.63;37.59
54994;BME280;40891;47.242;8.648;2023-01-29T09:18:03;97228.91;;;13.78;37.45
54994;BME280;40891;47.242;8.648;2023-01-29T09:20:29;97225.22;;;13.81;36.67
54994;BME280;40891;47.242;8.648;2023-01-29T09:22:54;97237.88;;;13.39;37.65
54994;BME280;40891;47.242;8.648;2023-01-29T09:25:20;97240.00;;;12.72;37.40
54994;BME280;40891;47.242;8.648;2023-01-29T09:27:46;97265.63;;;10.91;41.71
54994;BME280;40891;47.242;8.648;2023-01-29T09:30:11;97265.34;;;10.14;43.61
54994;BME280;40891;47.242;8.648;2023-01-29T09:32:37;97288.47;;;8.42;47.42
54994;BME280;40891;47.242;8.648;2023-01-29T09:35:02;97295.78;;;7.54;50.17
54994;BME280;40891;47.242;8.648;2023-01-29T09:37:28;97294.69;;;6.97;52.15
54994;BME280;40891;47.242;8.648;2023-01-29T09:39:53;97310.13;;;6.25;53.91
54994;BME280;40891;47.242;8.648;2023-01-29T09:42:33;97314.22;;;5.78;54.55
54994;BME280;40891;47.242;8.648;2023-01-29T09:47:35;97313.13;;;5.26;56.76
54994;BME280;40891;47.242;8.648;2023-01-29T09:50:21;97316.69;;;5.06;58.18
54994;BME280;40891;47.242;8.648;2023-01-29T09:53:05;97317.06;;;4.97;58.34
54994;BME280;40891;47.242;8.648;2023-01-29T09:55:44;97317.06;;;4.79;58.78
54994;BME280;40891;47.242;8.648;2023-01-29T10:01:14;97324.16;;;5.05;56.21
54994;BME280;40891;47.242;8.648;2023-01-29T10:17:43;97311.03;;;6.04;52.07
54994;BME280;40891;47.242;8.648;2023-01-29T10:25:38;97308.66;;;6.79;49.22
54994;BME280;40891;47.242;8.648;2023-01-29T10:28:14;97319.72;;;6.75;49.85
54994;BME280;40891;47.242;8.648;2023-01-29T10:30:46;97313.63;;;6.43;49.98
54994;BME280;40891;47.242;8.648;2023-01-29T10:33:17;97326.22;;;6.44;50.60
54994;BME280;40891;47.242;8.648;2023-01-29T10:35:48;97323.19;;;6.21;50.33
54994;BME280;40891;47.242;8.648;2023-01-29T10:38:44;97324.44;;;5.99;51.06
54994;BME280;40891;47.242;8.648;2023-01-29T10:44:00;97320.53;;;6.72;49.09
54994;BME280;40891;47.242;8.648;2023-01-29T10:55:14;97327.69;;;5.16;52.93
54994;BME280;40891;47.242;8.648;2023-01-29T10:58:12;97333.59;;;4.94;53.75
54994;BME280;40891;47.242;8.648;2023-01-29T11:00:41;97331.66;;;5.08;53.51
54994;BME280;40891;47.242;8.648;2023-01-29T11:03:36;97331.66;;;4.87;53.44
54994;BME280;40891;47.242;8.648;2023-01-29T11:06:41;97332.44;;;5.05;53.52
54994;BME280;40891;47.242;8.648;2023-01-29T11:12:29;97319.41;;;5.30;52.25
54994;BME280;40891;47.242;8.648;2023-01-29T11:15:02;97309.59;;;5.01;51.88
54994;BME280;40891;47.242;8.648;2023-01-29T11:17:29;97300.13;;;5.34;52.07
54994;BME280;40891;47.242;8.648;2023-01-29T11:19:54;97303.28;;;5.29;51.52
54994;BME280;40891;47.242;8.648;2023-01-29T11:22:25;97295.34;;;5.59;50.98
54994;BME280;40891;47.242;8.648;2023-01-29T11:27:43;97291.09;;;6.41;47.94
54994;BME280;40891;47.242;8.648;2023-01-29T11:30:25;97286.63;;;6.68;47.76
54994;BME280;40891;47.242;8.648;2023-01-29T11:35:36;97287.69;;;6.81;47.40
54994;BME280;40891;47.242;8.648;2023-01-29T11:38:18;97289.94;;;7.01;47.88
54994;BME280;40891;47.242;8.648;2023-01-29T11:40:45;97278.81;;;7.08;47.36
54994;BME280;40891;47.242;8.648;2023-01-29T11:43:19;97265.34;;;7.54;45.35
54994;BME280;40891;47.242;8.648;2023-01-29T11:45:45;97269.22;;;7.23;45.55
54994;BME280;40891;47.242;8.648;2023-01-29T11:48:17;97271.69;;;7.54;44.82
54994;BME280;40891;47.242;8.648;2023-01-29T11:50:50;97257.28;;;8.04;44.15
54994;BME280;40891;47.242;8.648;2023-01-29T11:53:30;97260.38;;;7.76;44.62
54994;BME280;40891;47.242;8.648;2023-01-29T11:55:58;97257.50;;;7.45;43.91
54994;BME280;40891;47.242;8.648;2023-01-29T11:58:28;97268.06;;;6.65;46.62
54994;BME280;40891;47.242;8.648;2023-01-29T12:00:56;97260.09;;;6.78;46.43
54994;BME280;40891;47.242;8.648;2023-01-29T12:03:48;97250.72;;;7.13;46.28
54994;BME280;40891;47.242;8.648;2023-01-29T12:06:20;97256.72;;;7.04;46.33
54994;BME280;40891;47.242;8.648;2023-01-29T12:08:54;97245.81;;;6.86;46.96
54994;BME280;40891;47.242;8.648;2023-01-29T12:11:27;97241.59;;;6.71;47.59
54994;BME280;40891;47.242;8.648;2023-01-29T12:13:55;97242.84;;;6.63;48.16
54994;BME280;40891;47.242;8.648;2023-01-29T12:19:44;97234.00;;;7.27;45.08
54994;BME280;40891;47.242;8.648;2023-01-29T12:22:26;97231.81;;;7.08;47.21
54994;BME280;40891;47.242;8.648;2023-01-29T12:25:07;97224.88;;;6.89;47.90
54994;BME280;40891;47.242;8.648;2023-01-29T12:27:45;97223.25;;;6.95;47.72
54994;BME280;40891;47.242;8.648;2023-01-29T12:33:15;97233.81;;;7.07;47.86
54994;BME280;40891;47.242;8.648;2023-01-29T12:35:53;97229.84;;;7.08;47.23
54994;BME280;40891;47.242;8.648;2023-01-29T12:38:21;97228.00;;;6.91;45.88
54994;BME280;40891;47.242;8.648;2023-01-29T12:40:50;97230.06;;;6.80;46.77
54994;BME280;40891;47.242;8.648;2023-01-29T12:43:47;97224.44;;;6.43;48.21
54994;BME280;40891;47.242;8.648;2023-01-29T12:46:28;97228.78;;;6.40;49.28
54994;BME280;40891;47.242;8.648;2023-01-29T12:48:58;97227.44;;;6.00;48.27
54994;BME280;40891;47.242;8.648;2023-01-29T12:51:30;97220.00;;;5.83;49.05
54994;BME280;40891;47.242;8.648;2023-01-29T12:54:25;97231.16;;;5.55;50.25
54994;BME280;40891;47.242;8.648;2023-01-29T12:56:55;97230.78;;;5.42;53.45
54994;BME280;40891;47.242;8.648;2023-01-29T12:59:43;97231.97;;;5.48;52.25
54994;BME280;40891;47.242;8.648;2023-01-29T13:02:18;97233.84;;;5.76;52.21
54994;BME280;40891;47.242;8.648;2023-01-29T13:04:58;97231.31;;;6.13;51.50
54994;BME280;40891;47.242;8.648;2023-01-29T13:07:40;97228.78;;;5.61;50.53
54994;BME280;40891;47.242;8.648;2023-01-29T13:10:13;97220.50;;;5.61;51.14
54994;BME280;40891;47.242;8.648;2023-01-29T13:12:50;97227.91;;;5.88;49.74
54994;BME280;40891;47.242;8.648;2023-01-29T13:15:27;97213.66;;;6.59;47.84
54994;BME280;40891;47.242;8.648;2023-01-29T13:18:13;97218.84;;;5.88;49.15
54994;BME280;40891;47.242;8.648;2023-01-29T13:20:43;97206.66;;;6.95;47.25
54994;BME280;40891;47.242;8.648;2023-01-29T13:23:21;97195.50;;;8.07;44.51
54994;BME280;40891;47.242;8.648;2023-01-29T13:25:50;97191.59;;;9.70;41.30
54994;BME280;40891;47.242;8.648;2023-01-29T13:28:20;97177.00;;;11.22;38.04
54994;BME280;40891;47.242;8.648;2023-01-29T13:30:46;97181.47;;;10.71;37.27
54994;BME280;40891;47.242;8.648;2023-01-29T13:33:32;97187.00;;;10.39;37.68
54994;BME280;40891;47.242;8.648;2023-01-29T13:35:58;97189.28;;;10.60;39.33
54994;BME280;40891;47.242;8.648;2023-01-29T13:38:27;97188.59;;;9.81;39.75
54994;BME280;40891;47.242;8.648;2023-01-29T13:41:02;97191.75;;;8.97;40.94
54994;BME280;40891;47.242;8.648;2023-01-29T13:43:34;97190.81;;;9.50;40.81
54994;BME280;40891;47.242;8.648;2023-01-29T13:46:07;97191.97;;;10.11;38.06
54994;BME280;40891;47.242;8.648;2023-01-29T13:48:40;97192.22;;;9.38;40.92
54994;BME280;40891;47.242;8.648;2023-01-29T13:51:10;97183.81;;;9.22;41.24
54994;BME280;40891;47.242;8.648;2023-01-29T13:53:42;97205.66;;;8.17;43.73
54994;BME280;40891;47.242;8.648;2023-01-29T13:59:05;97192.78;;;6.99;45.46
54994;BME280;40891;47.242;8.648;2023-01-29T14:06:48;97193.44;;;7.50;45.05
54994;BME280;40891;47.242;8.648;2023-01-29T14:09:34;97193.66;;;6.92;45.64
54994;BME280;40891;47.242;8.648;2023-01-29T14:17:25;97192.09;;;5.64;49.69
54994;BME280;40891;47.242;8.648;2023-01-29T14:19:52;97195.72;;;5.39;50.73
54994;BME280;40891;47.242;8.648;2023-01-29T14:22:21;97188.75;;;5.00;52.13
54994;BME280;40891;47.242;8.648;2023-01-29T14:24:48;97187.22;;;4.60;52.83
54994;BME280;40891;47.242;8.648;2023-01-29T14:27:19;97183.28;;;4.57;53.29
54994;BME280;40891;47.242;8.648;2023-01-29T14:29:46;97177.78;;;4.68;53.20
54994;BME280;40891;47.242;8.648;2023-01-29T14:32:17;97171.88;;;4.87;52.53
54994;BME280;40891;47.242;8.648;2023-01-29T14:34:47;97183.28;;;4.68;53.38
54994;BME280;40891;47.242;8.648;2023-01-29T14:39:50;97176.19;;;4.92;53.39
54994;BME280;40891;47.242;8.648;2023-01-29T14:42:33;97182.50;;;4.60;54.59
54994;BME280;40891;47.242;8.648;2023-01-29T14:45:29;97171.09;;;4.55;54.61
54994;BME280;40891;47.242;8.648;2023-01-29T14:47:58;97170.69;;;4.25;55.42
54994;BME280;40891;47.242;8.648;2023-01-29T14:52:53;97168.72;;;4.18;56.79
54994;BME280;40891;47.242;8.648;2023-01-29T14:55:30;97171.44;;;4.00;57.03
54994;BME280;40891;47.242;8.648;2023-01-29T14:58:00;97168.72;;;4.18;57.15
54994;BME280;40891;47.242;8.648;2023-01-29T15:00:29;97170.25;;;3.98;57.68
54994;BME280;40891;47.242;8.648;2023-01-29T15:02:55;97160.78;;;3.78;59.58
54994;BME280;40891;47.242;8.648;2023-01-29T15:05:28;97155.66;;;3.66;58.74
54994;BME280;40891;47.242;8.648;2023-01-29T15:08:05;97152.91;;;3.69;58.82
54994;BME280;40891;47.242;8.648;2023-01-29T15:10:41;97156.78;;;3.58;59.32